Time;durP1;ratioP1;P1;durP2;ratioP2;P2;SDS_P1;SDS_P2;PMS_P1;PMS_P2;Temp;Humidity;BMP_temperature;BMP_pressure;BME280_temperature;BME280_humidity;BME280_pressure;Samples;Min_cycle;Max_cycle;Signal;HPM_P1;HPM_P2
2022/05/29 00:00:17;;;;;;;8.00;5.32;;;16.00;99.90;;;;;;5047209;28;20048;-54
2022/05/29 00:02:43;;;;;;;5.50;4.35;;;16.10;99.90;;;;;;5045993;28;20037;-53
2022/05/29 00:05:11;;;;;;;5.03;4.00;;;16.20;99.90;;;;;;5051363;28;20028;-53
2022/05/29 00:07:39;;;;;;;7.82;5.00;;;16.10;99.90;;;;;;5046795;28;20049;-56
2022/05/29 00:10:08;;;;;;;8.45;4.28;;;15.90;99.90;;;;;;5043797;28;20035;-57
2022/05/29 00:12:35;;;;;;;6.90;3.65;;;15.80;99.90;;;;;;5045239;28;20045;-52
2022/05/29 00:15:01;;;;;;;4.50;3.72;;;15.70;99.90;;;;;;5050093;28;20389;-58
2022/05/29 00:17:27;;;;;;;6.35;3.80;;;15.60;99.90;;;;;;5047242;28;20029;-56
2022/05/29 00:19:54;;;;;;;6.68;3.40;;;15.80;99.90;;;;;;5041095;28;20029;-53
2022/05/29 00:22:21;;;;;;;4.78;3.30;;;16.10;99.90;;;;;;5049300;28;20053;-54
2022/05/29 00:24:49;;;;;;;4.40;3.10;;;16.20;99.90;;;;;;5048117;28;20021;-57
2022/05/29 00:27:16;;;;;;;5.65;3.28;;;16.20;99.90;;;;;;5048572;28;20435;-56
2022/05/29 00:29:43;;;;;;;5.00;3.38;;;16.10;99.90;;;;;;5045624;28;20021;-55
2022/05/29 00:32:09;;;;;;;4.63;3.22;;;16.00;99.90;;;;;;5051753;28;20033;-52
2022/05/29 00:34:35;;;;;;;4.97;3.47;;;16.00;99.90;;;;;;5051228;28;20036;-60
2022/05/29 00:37:07;;;;;;;5.55;3.25;;;16.00;99.90;;;;;;5043139;28;20045;-56
2022/05/29 00:39:34;;;;;;;3.85;3.08;;;16.20;99.90;;;;;;5036377;28;20139;-57
2022/05/29 00:42:06;;;;;;;3.33;3.00;;;16.40;99.90;;;;;;5046376;28;20060;-61
2022/05/29 00:44:33;;;;;;;8.10;3.75;;;16.50;99.90;;;;;;5044107;28;20041;-56
2022/05/29 00:47:12;;;;;;;3.97;3.25;;;16.60;99.90;;;;;;5052003;28;20083;-55
2022/05/29 00:49:40;;;;;;;6.20;3.03;;;16.50;99.90;;;;;;5049584;28;20514;-57
2022/05/29 00:52:28;;;;;;;4.22;3.30;;;16.30;99.90;;;;;;5044607;28;20025;-55
2022/05/29 00:55:00;;;;;;;5.70;3.50;;;16.10;99.90;;;;;;5046808;28;20061;-56
2022/05/29 00:57:30;;;;;;;3.90;3.00;;;16.30;99.90;;;;;;5047760;28;20048;-55
2022/05/29 01:00:00;;;;;;;4.88;2.95;;;16.40;99.90;;;;;;5048501;28;20048;-56
2022/05/29 01:02:26;;;;;;;4.43;3.15;;;16.40;99.90;;;;;;5049189;28;20376;-63
2022/05/29 01:04:52;;;;;;;3.95;3.08;;;16.50;99.90;;;;;;5045666;28;20122;-55
2022/05/29 01:07:21;;;;;;;5.70;2.97;;;16.50;99.90;;;;;;5048216;28;20025;-55
2022/05/29 01:09:49;;;;;;;4.82;3.00;;;16.60;99.90;;;;;;5046359;28;20025;-58
2022/05/29 01:12:48;;;;;;;5.40;3.20;;;16.60;99.90;;;;;;5064583;28;20029;-54
2022/05/29 01:15:26;;;;;;;6.38;2.90;;;16.70;99.90;;;;;;5050139;28;20037;-57
2022/05/29 01:18:16;;;;;;;3.67;3.10;;;16.70;99.90;;;;;;5047488;28;20043;-53
2022/05/29 01:21:00;;;;;;;3.85;3.13;;;16.60;99.90;;;;;;5045425;28;20055;-55
2022/05/29 01:24:01;;;;;;;5.07;2.90;;;16.70;99.90;;;;;;5047452;28;20041;-56
2022/05/29 01:26:58;;;;;;;9.27;4.10;;;16.70;99.90;;;;;;5028158;28;20029;-60
2022/05/29 01:29:56;;;;;;;5.97;3.80;;;16.30;99.90;;;;;;5044425;28;20429;-59
2022/05/29 01:32:30;;;;;;;7.80;5.60;;;15.90;99.90;;;;;;5044140;28;20071;-53
2022/05/29 01:35:31;;;;;;;6.13;4.60;;;15.60;99.90;;;;;;5051038;28;20036;-53
2022/05/29 01:38:15;;;;;;;7.40;4.65;;;15.90;99.90;;;;;;5022965;28;20048;-54
2022/05/29 01:41:09;;;;;;;5.22;4.38;;;16.20;99.90;;;;;;5024347;28;20063;-57
2022/05/29 01:44:01;;;;;;;5.65;4.47;;;16.30;99.90;;;;;;5024800;28;20038;-59
2022/05/29 01:46:31;;;;;;;5.53;4.13;;;16.50;99.90;;;;;;4951947;29;20039;-59
2022/05/29 01:49:04;;;;;;;7.32;4.15;;;16.60;99.90;;;;;;4951934;28;20295;-51
2022/05/29 01:51:51;;;;;;;6.50;5.05;;;16.60;99.90;;;;;;4952363;28;20039;-57
2022/05/29 01:54:43;;;;;;;5.60;4.47;;;16.60;99.90;;;;;;4951858;28;20039;-55
2022/05/29 01:57:24;;;;;;;8.40;4.60;;;16.60;99.90;;;;;;4951953;29;20062;-56
2022/05/29 02:00:16;;;;;;;7.60;3.97;;;16.60;99.90;;;;;;4951828;28;20063;-59
2022/05/29 02:02:56;;;;;;;4.93;3.40;;;16.60;99.90;;;;;;4968140;28;20074;-57
2022/05/29 02:05:27;;;;;;;6.40;4.03;;;16.60;99.90;;;;;;4953091;29;20031;-56
2022/05/29 02:08:01;;;;;;;7.97;4.00;;;16.70;99.90;;;;;;4952825;28;20051;-54
2022/05/29 02:10:37;;;;;;;4.85;3.35;;;16.70;99.90;;;;;;4952933;29;20120;-52
2022/05/29 02:13:10;;;;;;;7.15;3.85;;;16.70;99.90;;;;;;4952936;28;20043;-55
2022/05/29 02:15:48;;;;;;;5.53;3.28;;;16.50;99.90;;;;;;4952984;29;20430;-56
2022/05/29 02:18:34;;;;;;;4.38;3.80;;;16.30;99.90;;;;;;4952779;29;20043;-58
2022/05/29 02:21:06;;;;;;;7.28;3.90;;;16.20;99.90;;;;;;4952863;29;20035;-58
2022/05/29 02:23:43;;;;;;;5.40;3.80;;;16.30;99.90;;;;;;4996172;28;20041;-56
2022/05/29 02:26:12;;;;;;;5.10;3.83;;;16.30;99.90;;;;;;5032971;28;20029;-59
2022/05/29 02:28:46;;;;;;;4.72;3.50;;;16.40;99.90;;;;;;5032932;28;20025;-59
2022/05/29 02:31:17;;;;;;;4.60;4.05;;;16.40;99.90;;;;;;5033178;28;20021;-57
2022/05/29 02:34:10;;;;;;;7.70;4.55;;;16.40;99.90;;;;;;5032780;28;20037;-57
2022/05/29 02:36:45;;;;;;;7.43;4.10;;;16.50;99.90;;;;;;5032771;28;20025;-51
2022/05/29 02:39:48;;;;;;;10.85;3.90;;;16.50;99.90;;;;;;5032832;28;20109;-56
2022/05/29 02:42:38;;;;;;;7.00;3.60;;;16.50;99.90;;;;;;5032824;28;20028;-59
2022/05/29 02:45:23;;;;;;;4.53;3.70;;;16.40;99.90;;;;;;5033060;28;20051;-56
2022/05/29 02:48:03;;;;;;;6.00;3.97;;;16.50;99.90;;;;;;5047625;28;20041;-57
2022/05/29 02:50:49;;;;;;;7.40;3.95;;;16.50;99.90;;;;;;5032816;28;20030;-53
2022/05/29 02:53:15;;;;;;;7.43;4.18;;;16.40;99.90;;;;;;5032646;28;20504;-57
2022/05/29 02:55:43;;;;;;;9.55;4.30;;;16.50;99.90;;;;;;5032725;28;20064;-56
2022/05/29 02:58:20;;;;;;;6.00;4.05;;;16.50;99.90;;;;;;5032639;28;20072;-61
2022/05/29 03:01:07;;;;;;;6.80;4.15;;;16.50;99.90;;;;;;5047333;28;20037;-55
2022/05/29 03:04:01;;;;;;;6.15;4.20;;;16.60;99.90;;;;;;5032783;28;20144;-58
2022/05/29 03:06:50;;;;;;;4.97;4.00;;;16.60;99.90;;;;;;5013408;28;20034;-56
2022/05/29 03:09:43;;;;;;;9.93;4.38;;;16.60;99.90;;;;;;5014011;28;20049;-59
2022/05/29 03:12:35;;;;;;;6.72;4.43;;;16.60;99.90;;;;;;5014409;28;20501;-54
2022/05/29 03:15:33;;;;;;;8.15;4.30;;;16.60;99.90;;;;;;5014188;28;20520;-57
2022/05/29 03:18:35;;;;;;;8.27;4.65;;;16.50;99.90;;;;;;4965233;28;20038;-52
2022/05/29 03:21:07;;;;;;;6.43;4.28;;;16.50;99.90;;;;;;5014087;28;20125;-57
2022/05/29 03:23:48;;;;;;;5.63;3.60;;;16.50;99.90;;;;;;4981517;28;20084;-56
2022/05/29 03:26:25;;;;;;;5.82;3.30;;;16.50;99.90;;;;;;5014050;28;20036;-58
2022/05/29 03:29:02;;;;;;;6.13;3.55;;;16.50;99.90;;;;;;5013997;28;20060;-52
2022/05/29 03:31:30;;;;;;;7.43;3.80;;;16.50;99.90;;;;;;5014095;28;20040;-59
2022/05/29 03:33:57;;;;;;;3.95;2.85;;;16.50;99.90;;;;;;5013798;28;20029;-57
2022/05/29 03:36:25;;;;;;;6.85;2.70;;;16.40;99.90;;;;;;5013832;28;20038;-61
2022/05/29 03:38:51;;;;;;;8.05;3.20;;;16.40;99.90;;;;;;5013529;28;20048;-61
2022/05/29 03:41:44;;;;;;;9.20;3.28;;;16.30;99.90;;;;;;5013864;28;20105;-58
2022/05/29 03:44:11;;;;;;;5.00;2.95;;;16.30;99.90;;;;;;4970429;28;20050;-54
2022/05/29 03:46:39;;;;;;;3.10;2.63;;;16.30;99.90;;;;;;4974646;28;20475;-55
2022/05/29 03:49:07;;;;;;;5.05;2.63;;;16.30;99.90;;;;;;4974468;28;20049;-55
2022/05/29 03:51:33;;;;;;;7.78;2.75;;;16.30;99.90;;;;;;4942405;28;20039;-60
2022/05/29 03:54:00;;;;;;;6.13;2.85;;;16.30;99.90;;;;;;4973848;28;20123;-52
2022/05/29 03:56:26;;;;;;;5.38;2.45;;;16.40;99.90;;;;;;4990089;28;20035;-54
2022/05/29 03:58:52;;;;;;;6.28;2.50;;;16.30;99.90;;;;;;4974182;28;20039;-51
2022/05/29 04:01:18;;;;;;;4.78;2.33;;;16.30;99.90;;;;;;4979387;28;20093;-56
2022/05/29 04:03:43;;;;;;;5.15;2.50;;;16.40;99.90;;;;;;4993795;28;20034;-60
2022/05/29 04:06:09;;;;;;;3.97;2.05;;;16.40;99.90;;;;;;4993259;28;20027;-58
2022/05/29 04:14:05;;;;;;;4.55;2.30;;;16.50;99.90;;;;;;4993725;28;20057;-58
2022/05/29 04:16:31;;;;;;;4.68;2.60;;;16.40;99.90;;;;;;4993614;28;20034;-55
2022/05/29 04:18:57;;;;;;;2.72;2.42;;;16.40;99.90;;;;;;4984160;28;20047;-59
2022/05/29 04:21:22;;;;;;;4.82;2.33;;;16.40;99.90;;;;;;5014836;28;20105;-62
2022/05/29 04:23:48;;;;;;;6.13;2.72;;;16.50;99.90;;;;;;5035020;28;20028;-62
2022/05/29 04:26:15;;;;;;;3.67;2.40;;;16.60;99.90;;;;;;5034549;28;20025;-60
2022/05/29 04:28:42;;;;;;;8.18;2.80;;;16.70;99.90;;;;;;5034765;28;20029;-62
2022/05/29 04:31:07;;;;;;;4.65;2.42;;;16.80;99.90;;;;;;5034799;28;20022;-53
2022/05/29 04:33:34;;;;;;;5.63;2.47;;;16.90;99.90;;;;;;5049767;28;20037;-56
2022/05/29 04:35:59;;;;;;;7.40;2.70;;;17.00;99.90;;;;;;5052849;28;20033;-61
2022/05/29 04:38:29;;;;;;;5.32;2.92;;;17.10;99.90;;;;;;5054477;28;20040;-60
2022/05/29 04:40:56;;;;;;;6.43;2.80;;;17.10;99.90;;;;;;5066028;28;20082;-58
2022/05/29 04:43:22;;;;;;;5.22;2.40;;;17.10;99.90;;;;;;5080934;28;20036;-62
2022/05/29 04:45:53;;;;;;;5.10;2.30;;;17.10;99.90;;;;;;5054843;28;20033;-54
2022/05/29 04:48:19;;;;;;;7.20;2.75;;;17.10;99.90;;;;;;5034298;28;20477;-52
2022/05/29 04:50:44;;;;;;;3.67;2.30;;;17.10;99.90;;;;;;5015880;28;20042;-57
2022/05/29 04:53:11;;;;;;;4.25;2.60;;;17.20;99.90;;;;;;5034336;28;20029;-53
2022/05/29 04:55:39;;;;;;;7.30;3.38;;;17.30;99.90;;;;;;5034266;28;20029;-60
2022/05/29 04:58:07;;;;;;;3.95;2.40;;;17.30;99.90;;;;;;5034004;28;20079;-55
2022/05/29 05:00:32;;;;;;;5.78;2.30;;;17.30;99.90;;;;;;5034257;28;20032;-56
2022/05/29 05:02:58;;;;;;;3.08;2.10;;;17.40;99.90;;;;;;5034334;28;20112;-55
2022/05/29 05:05:24;;;;;;;4.32;2.30;;;17.30;99.90;;;;;;5034048;28;20037;-55
2022/05/29 05:07:50;;;;;;;4.60;2.70;;;17.40;99.90;;;;;;5032159;28;20485;-54
2022/05/29 05:10:17;;;;;;;5.38;2.88;;;17.40;99.90;;;;;;5033941;28;20117;-58
2022/05/29 05:12:44;;;;;;;4.78;2.60;;;17.40;99.90;;;;;;5034281;28;20037;-53
2022/05/29 05:15:13;;;;;;;4.30;2.50;;;16.90;99.90;;;;;;5032821;28;20029;-53
2022/05/29 05:17:39;;;;;;;3.80;2.60;;;17.00;99.90;;;;;;5033983;28;20036;-59
2022/05/29 05:20:06;;;;;;;7.55;2.80;;;16.90;99.90;;;;;;5033864;28;20477;-57
2022/05/29 05:22:32;;;;;;;4.90;3.03;;;16.80;99.90;;;;;;5033878;28;20358;-58
2022/05/29 05:24:58;;;;;;;5.95;3.20;;;16.80;99.90;;;;;;5032827;28;20392;-58
2022/05/29 05:27:25;;;;;;;5.32;2.90;;;16.80;99.90;;;;;;5033548;28;20025;-60
2022/05/29 05:29:51;;;;;;;5.43;2.90;;;16.90;99.90;;;;;;5033644;28;20037;-59
2022/05/29 05:32:16;;;;;;;4.35;2.78;;;17.00;99.90;;;;;;5033737;28;20034;-59
2022/05/29 05:34:42;;;;;;;9.35;3.03;;;17.10;99.90;;;;;;5048478;28;20113;-58
2022/05/29 05:37:10;;;;;;;4.80;3.10;;;17.00;99.90;;;;;;5032067;28;20496;-57
2022/05/29 05:39:36;;;;;;;5.55;3.20;;;16.90;99.90;;;;;;5033889;28;20037;-59
2022/05/29 05:42:01;;;;;;;5.43;3.22;;;16.90;99.90;;;;;;5015255;28;20531;-56
2022/05/29 05:44:27;;;;;;;5.07;2.83;;;16.90;99.90;;;;;;5015074;28;20495;-56
2022/05/29 05:46:53;;;;;;;3.92;2.78;;;17.00;99.90;;;;;;5048333;28;20041;-63
2022/05/29 05:49:21;;;;;;;5.93;2.67;;;17.00;99.90;;;;;;5033409;28;20026;-55
2022/05/29 05:51:47;;;;;;;5.13;3.92;;;17.20;99.90;;;;;;5033349;28;20029;-52
2022/05/29 05:54:14;;;;;;;4.43;2.67;;;17.20;99.90;;;;;;5032097;28;20045;-59
2022/05/29 05:56:47;;;;;;;4.53;2.58;;;17.40;99.90;;;;;;5033427;28;20502;-53
2022/05/29 05:59:14;;;;;;;5.45;3.17;;;17.30;99.90;;;;;;5034770;28;20029;-60
2022/05/29 06:01:40;;;;;;;4.80;3.30;;;17.20;99.90;;;;;;5044278;28;20550;-60
2022/05/29 06:04:06;;;;;;;6.90;3.50;;;17.40;99.90;;;;;;5041821;28;20104;-59
2022/05/29 06:06:32;;;;;;;5.28;3.40;;;17.40;99.90;;;;;;5033197;28;20493;-53
2022/05/29 06:08:58;;;;;;;5.45;3.50;;;17.50;99.90;;;;;;5034560;28;20053;-61
2022/05/29 06:11:28;;;;;;;5.05;3.65;;;17.60;99.90;;;;;;5053153;28;20529;-58
2022/05/29 06:13:54;;;;;;;4.90;3.38;;;17.60;99.90;;;;;;5046773;28;20033;-57
2022/05/29 06:16:20;;;;;;;6.78;3.38;;;17.50;99.90;;;;;;5031019;28;20044;-51
2022/05/29 06:18:46;;;;;;;5.25;3.40;;;17.60;99.90;;;;;;5043225;28;20114;-57
2022/05/29 06:21:12;;;;;;;7.38;5.45;;;17.70;99.90;;;;;;5051035;28;20040;-58
2022/05/29 06:23:39;;;;;;;7.15;3.90;;;17.70;99.90;;;;;;5050872;28;20400;-58
2022/05/29 06:26:12;;;;;;;5.60;3.80;;;17.70;99.90;;;;;;5050976;28;20124;-52
2022/05/29 06:28:39;;;;;;;4.95;3.58;;;17.90;99.90;;;;;;5050855;28;20060;-62
2022/05/29 06:31:06;;;;;;;4.85;3.60;;;18.00;99.90;;;;;;5050814;28;20054;-55
2022/05/29 06:33:32;;;;;;;6.72;3.67;;;18.20;99.90;;;;;;5050718;28;20036;-59
2022/05/29 06:36:14;;;;;;;3.78;3.28;;;18.30;99.90;;;;;;5050963;28;20103;-58
2022/05/29 06:38:41;;;;;;;5.80;3.35;;;18.30;99.90;;;;;;5032048;28;20370;-58
2022/05/29 06:41:09;;;;;;;9.70;4.03;;;18.30;99.90;;;;;;5035599;28;20520;-51
2022/05/29 06:43:35;;;;;;;4.53;3.70;;;18.30;99.90;;;;;;5036679;28;20477;-55
2022/05/29 06:46:02;;;;;;;5.15;3.70;;;18.30;99.90;;;;;;5036866;28;20029;-55
2022/05/29 06:48:29;;;;;;;7.40;3.92;;;18.50;99.90;;;;;;5036982;28;20461;-54
2022/05/29 06:50:55;;;;;;;4.70;3.70;;;18.50;99.90;;;;;;5036641;28;20033;-52
2022/05/29 06:53:21;;;;;;;6.25;3.72;;;18.60;99.90;;;;;;5036561;28;20021;-59
2022/05/29 06:55:51;;;;;;;7.13;3.75;;;18.70;99.90;;;;;;5036988;28;20029;-57
2022/05/29 06:58:17;;;;;;;6.32;3.60;;;18.80;99.90;;;;;;5044057;28;20036;-59
2022/05/29 07:08:57;;;;;;;7.43;3.40;;;;;;;;;;5042420;28;20518;-60
2022/05/29 07:11:26;;;;;;;4.55;3.10;;;19.20;99.90;;;;;;5050447;28;20139;-63
2022/05/29 07:13:52;;;;;;;5.13;3.80;;;19.40;99.90;;;;;;5050458;28;20033;-61
2022/05/29 07:16:18;;;;;;;6.72;4.03;;;19.10;99.90;;;;;;5047519;28;20033;-56
2022/05/29 07:18:43;;;;;;;6.60;3.67;;;19.00;99.90;;;;;;5042927;28;20033;-55
2022/05/29 07:21:10;;;;;;;6.43;3.97;;;19.00;99.90;;;;;;5045506;28;20029;-54
2022/05/29 07:23:36;;;;;;;7.20;3.88;;;19.00;99.90;;;;;;5050253;28;20025;-56
2022/05/29 07:26:03;;;;;;;5.75;3.47;;;19.20;99.90;;;;;;5051581;28;20032;-55
2022/05/29 07:28:29;;;;;;;6.63;4.22;;;19.30;99.90;;;;;;5049039;28;20365;-56
2022/05/29 07:30:55;;;;;;;6.63;4.10;;;19.30;99.90;;;;;;5046222;28;20033;-57
2022/05/29 07:33:21;;;;;;;4.95;3.47;;;;;;;;;;5050172;28;20036;-59
2022/05/29 07:35:47;;;;;;;7.45;3.63;;;19.40;99.90;;;;;;5049948;28;20108;-53
2022/05/29 07:38:13;;;;;;;6.07;3.88;;;19.60;99.90;;;;;;5050557;28;20145;-54
2022/05/29 07:40:39;;;;;;;5.82;3.35;;;19.40;99.90;;;;;;5048169;28;20029;-58
2022/05/29 07:43:21;;;;;;;5.93;3.78;;;19.50;99.90;;;;;;5044974;28;20031;-56
2022/05/29 07:45:53;;;;;;;8.93;3.83;;;19.00;99.90;;;;;;5042845;28;20033;-57
2022/05/29 07:48:21;;;;;;;4.93;3.55;;;19.20;99.90;;;;;;5050781;28;20029;-54
2022/05/29 07:50:47;;;;;;;10.80;5.25;;;19.30;99.90;;;;;;5048491;28;20106;-64
2022/05/29 07:53:13;;;;;;;8.23;3.90;;;19.20;99.90;;;;;;5043526;28;20440;-55
2022/05/29 07:55:39;;;;;;;9.60;4.50;;;19.30;99.90;;;;;;5048383;28;20066;-57
2022/05/29 07:58:06;;;;;;;7.63;5.05;;;18.80;99.90;;;;;;5053751;28;20044;-53
2022/05/29 08:00:33;;;;;;;6.38;4.25;;;18.80;99.90;;;;;;5051228;28;20911;-55
2022/05/29 08:03:00;;;;;;;6.68;4.55;;;18.90;99.90;;;;;;5051392;28;20040;-57
2022/05/29 08:05:27;;;;;;;7.30;4.57;;;18.80;99.90;;;;;;5055228;28;20372;-55
2022/05/29 08:07:52;;;;;;;6.18;4.10;;;18.90;99.90;;;;;;5048993;28;20089;-57
2022/05/29 08:10:21;;;;;;;6.60;4.82;;;18.90;99.90;;;;;;5052978;28;20060;-56
2022/05/29 08:12:47;;;;;;;7.30;4.30;;;19.30;99.90;;;;;;5061972;28;20036;-52
2022/05/29 08:15:13;;;;;;;4.75;4.18;;;19.30;99.90;;;;;;5066630;28;20393;-59
2022/05/29 08:17:39;;;;;;;8.75;4.53;;;19.50;99.90;;;;;;5052474;28;20083;-56
2022/05/29 08:20:06;;;;;;;9.82;4.57;;;19.70;99.90;;;;;;5048641;28;20029;-53
2022/05/29 08:22:32;;;;;;;6.03;4.57;;;19.80;99.90;;;;;;5052434;28;20029;-57
2022/05/29 08:30:43;;;;;;;6.68;4.80;;;19.80;99.90;;;;;;5049962;28;20040;-55
2022/05/29 08:33:11;;;;;;;;;;;19.80;99.90;;;;;;5049682;28;20036;-60
2022/05/29 08:35:38;;;;;;;6.57;5.40;;;20.10;99.90;;;;;;5063704;28;19916;-58
2022/05/29 08:38:05;;;;;;;6.70;5.63;;;;;;;;;;5063818;28;20116;-56
2022/05/29 08:40:32;;;;;;;8.18;5.35;;;20.50;99.90;;;;;;5061918;28;20070;-55
2022/05/29 08:42:58;;;;;;;8.30;5.97;;;20.50;99.90;;;;;;5058530;28;20465;-53
2022/05/29 08:45:27;;;;;;;7.00;5.72;;;20.70;99.90;;;;;;5048477;28;20029;-53
2022/05/29 08:47:53;;;;;;;8.85;6.57;;;;;;;;;;5045875;28;20032;-53
2022/05/29 08:50:22;;;;;;;9.93;5.88;;;;;;;;;;5036477;28;20056;-55
2022/05/29 08:52:55;;;;;;;8.15;7.18;;;;;;;;;;5035340;28;20109;-57
2022/05/29 08:55:26;;;;;;;12.77;10.45;;;;;;;;;;5036821;28;20037;-52
2022/05/29 08:57:55;;;;;;;15.25;13.75;;;22.00;99.90;;;;;;5046112;28;20051;-57
2022/05/29 09:00:29;;;;;;;16.60;14.85;;;22.10;99.90;;;;;;5034252;28;20032;-58
2022/05/29 09:03:04;;;;;;;17.05;15.30;;;22.10;99.90;;;;;;5036735;28;20053;-53
2022/05/29 09:05:40;;;;;;;16.85;14.60;;;22.10;99.90;;;;;;5042800;28;20108;-58
2022/05/29 09:08:19;;;;;;;17.17;14.07;;;22.10;99.90;;;;;;5047603;28;20045;-58
2022/05/29 09:10:52;;;;;;;15.73;14.20;;;21.50;99.90;;;;;;5037071;28;20388;-53
2022/05/29 09:13:25;;;;;;;17.55;15.68;;;20.70;99.90;;;;;;5040079;28;20078;-58
2022/05/29 09:15:56;;;;;;;16.08;14.48;;;20.50;99.90;;;;;;5052513;28;20039;-57
2022/05/29 09:18:38;;;;;;;16.45;14.85;;;20.80;99.90;;;;;;5047008;28;20494;-52
2022/05/29 09:21:13;;;;;;;16.20;14.60;;;21.20;99.90;;;;;;5047745;28;20055;-51
2022/05/29 09:23:46;;;;;;;15.70;14.38;;;21.60;99.90;;;;;;5043402;28;20481;-52
2022/05/29 09:26:17;;;;;;;15.57;14.27;;;21.40;99.90;;;;;;5037590;28;20041;-57
2022/05/29 09:28:43;;;;;;;17.42;15.82;;;21.50;99.90;;;;;;5039636;28;20049;-58
2022/05/29 09:31:17;;;;;;;17.63;15.82;;;21.40;99.90;;;;;;5033610;28;20033;-53
2022/05/29 09:33:43;;;;;;;14.65;13.18;;;21.60;99.90;;;;;;5043648;28;20108;-55
2022/05/29 09:36:11;;;;;;;17.33;15.57;;;21.20;99.90;;;;;;5038482;28;20404;-55
2022/05/29 09:38:43;;;;;;;15.07;13.57;;;21.40;99.90;;;;;;5037981;28;20045;-51
2022/05/29 09:41:29;;;;;;;17.13;15.32;;;21.80;99.90;;;;;;5041424;28;20033;-52
2022/05/29 09:44:16;;;;;;;13.05;11.80;;;21.70;99.90;;;;;;5043524;28;20029;-51
2022/05/29 09:46:50;;;;;;;13.95;12.57;;;21.40;99.90;;;;;;5034421;28;20129;-54
2022/05/29 09:49:40;;;;;;;14.10;12.73;;;21.80;99.90;;;;;;5041956;28;20026;-56
2022/05/29 09:52:25;;;;;;;13.35;12.18;;;;;;;;;;5044830;28;20570;-57
2022/05/29 09:54:56;;;;;;;12.50;10.95;;;;;;;;;;5041019;28;20021;-54
2022/05/29 09:57:25;;;;;;;11.32;10.07;;;;;;;;;;5035908;28;20049;-61
2022/05/29 09:59:52;;;;;;;11.40;10.35;;;;;;;;;;5040396;28;20040;-57
2022/05/29 10:02:25;;;;;;;13.43;10.32;;;;;;;;;;5043095;28;20040;-52
2022/05/29 10:04:52;;;;;;;11.30;10.15;;;;;;;;;;5051427;28;20385;-56
2022/05/29 10:07:30;;;;;;;12.82;11.63;;;23.40;99.90;;;;;;5047256;28;20032;-53
2022/05/29 10:09:58;;;;;;;11.98;10.77;;;;;;;;;;5037744;28;20045;-59
2022/05/29 10:12:33;;;;;;;11.30;10.23;;;;;;;;;;5046525;28;20025;-53
2022/05/29 10:14:59;;;;;;;13.65;10.52;;;;;;;;;;5043246;28;20041;-51
2022/05/29 10:17:28;;;;;;;11.60;10.43;;;23.50;99.90;;;;;;5050495;28;20123;-53
2022/05/29 10:19:54;;;;;;;10.32;8.98;;;;;;;;;;5064918;28;20131;-55
2022/05/29 10:22:54;;;;;;;12.32;10.95;;;;;;;;;;5059444;28;20094;-53
2022/05/29 10:25:21;;;;;;;11.57;9.35;;;;;;;;;;4992283;28;20078;-61
2022/05/29 10:27:49;;;;;;;10.23;9.18;;;;;;;;;;4994497;28;20478;-55
2022/05/29 10:30:30;;;;;;;9.35;8.27;;;;;;;;;;4989840;28;20117;-55
2022/05/29 10:33:07;;;;;;;11.30;10.18;;;23.30;99.90;;;;;;4994358;28;20026;-54
2022/05/29 10:35:39;;;;;;;11.50;10.25;;;23.10;99.90;;;;;;4990698;28;20042;-53
2022/05/29 10:38:14;;;;;;;6.05;4.28;;;;;;;;;;4990555;28;20042;-53
2022/05/29 10:40:42;;;;;;;9.45;8.48;;;21.40;99.90;;;;;;4923372;29;20047;-53
2022/05/29 10:43:09;;;;;;;9.50;8.60;;;20.50;99.90;;;;;;4954190;28;20039;-52
2022/05/29 10:45:43;;;;;;;9.02;7.60;;;21.00;99.90;;;;;;4954301;28;20046;-54
2022/05/29 10:48:28;;;;;;;9.95;8.75;;;20.70;99.90;;;;;;4953771;29;20388;-49
2022/05/29 10:51:13;;;;;;;9.73;8.77;;;20.50;99.90;;;;;;4955455;29;20051;-53
2022/05/29 10:53:56;;;;;;;11.90;9.70;;;20.50;99.90;;;;;;4953210;29;20779;-54
2022/05/29 10:56:33;;;;;;;10.88;9.65;;;21.60;99.90;;;;;;4954883;28;20074;-51
2022/05/29 10:59:14;;;;;;;10.07;8.48;;;22.60;99.90;;;;;;4955315;28;20187;-51
2022/05/29 11:04:33;;;;;;;8.95;7.53;;;23.40;99.90;;;;;;5029105;28;20056;-57
2022/05/29 11:07:21;;;;;;;8.02;7.20;;;23.50;99.90;;;;;;5031708;28;20045;-54
2022/05/29 11:10:10;;;;;;;12.27;8.80;;;23.00;99.90;;;;;;5032898;28;20473;-56
2022/05/29 11:12:48;;;;;;;9.32;8.30;;;23.40;99.90;;;;;;5042126;28;20033;-55
2022/05/29 11:15:34;;;;;;;7.05;6.38;;;24.20;99.90;;;;;;5044180;28;20036;-52
2022/05/29 11:18:22;;;;;;;15.20;8.88;;;23.70;99.90;;;;;;5046081;28;20052;-52
2022/05/29 11:21:12;;;;;;;10.35;9.40;;;23.40;99.90;;;;;;5048489;28;20029;-52
2022/05/29 11:23:59;;;;;;;9.52;8.73;;;23.20;99.90;;;;;;5043365;28;20499;-51
2022/05/29 11:26:31;;;;;;;8.80;7.97;;;;;;;;;;5048512;28;20031;-55
2022/05/29 11:29:00;;;;;;;;;;;22.20;99.90;;;;;;5044488;28;20025;-53
2022/05/29 11:31:44;;;;;;;9.75;8.75;;;22.10;99.90;;;;;;5061794;28;19905;-53
2022/05/29 11:34:13;;;;;;;10.13;9.13;;;;;;;;;;5052046;28;20037;-50
2022/05/29 11:36:51;;;;;;;9.75;8.25;;;21.70;99.90;;;;;;5055211;28;20045;-53
2022/05/29 11:39:31;;;;;;;10.07;9.05;;;21.60;99.90;;;;;;5044976;28;20059;-52
2022/05/29 11:41:56;;;;;;;10.40;8.43;;;21.90;99.90;;;;;;5050453;28;20035;-52
2022/05/29 11:44:55;;;;;;;9.30;8.50;;;21.80;99.90;;;;;;5053278;28;20123;-50
2022/05/29 11:53:21;;;;;;;10.50;7.80;;;22.00;99.90;;;;;;5046457;28;20117;-48
2022/05/29 11:55:49;;;;;;;9.27;8.35;;;21.80;99.90;;;;;;5048371;28;20025;-56
2022/05/29 11:58:23;;;;;;;11.07;8.77;;;21.90;99.90;;;;;;5053235;28;20484;-54
2022/05/29 12:01:12;;;;;;;7.82;7.10;;;21.90;99.90;;;;;;5046227;28;20079;-54
2022/05/29 12:03:51;;;;;;;7.32;5.57;;;21.60;99.90;;;;;;5059091;28;20448;-54
2022/05/29 12:06:38;;;;;;;6.55;5.95;;;21.40;99.90;;;;;;5048383;28;20032;-53
2022/05/29 12:09:07;;;;;;;6.35;5.50;;;21.20;99.90;;;;;;5047755;28;20080;-53
2022/05/29 12:11:35;;;;;;;6.10;4.82;;;21.70;99.90;;;;;;5052168;28;20036;-54
2022/05/29 12:14:25;;;;;;;8.90;6.10;;;22.10;99.90;;;;;;5051785;28;20033;-54
2022/05/29 12:17:02;;;;;;;7.18;5.95;;;22.20;99.90;;;;;;5060905;28;20203;-54
2022/05/29 12:19:40;;;;;;;9.35;5.40;;;22.70;99.90;;;;;;5050035;28;21468;-53
2022/05/29 12:22:09;;;;;;;6.28;5.05;;;23.10;99.90;;;;;;5052149;28;20021;-52
2022/05/29 12:24:47;;;;;;;5.90;4.55;;;22.40;99.90;;;;;;5052217;28;20091;-53
2022/05/29 12:27:16;;;;;;;7.15;5.38;;;22.50;99.90;;;;;;5052765;28;20064;-53
2022/05/29 12:30:09;;;;;;;10.07;6.35;;;22.80;99.90;;;;;;5051936;28;20018;-53
2022/05/29 12:32:35;;;;;;;5.88;5.25;;;22.20;99.90;;;;;;5045307;28;20231;-54
2022/05/29 12:35:04;;;;;;;8.75;5.28;;;22.50;99.90;;;;;;5054486;28;20093;-54
2022/05/29 12:37:45;;;;;;;11.45;5.32;;;23.30;99.90;;;;;;5051077;28;20126;-54
2022/05/29 12:40:35;;;;;;;7.22;5.18;;;23.50;99.90;;;;;;5049225;28;20043;-54
2022/05/29 12:43:36;;;;;;;6.38;4.32;;;24.00;99.90;;;;;;5048222;28;20033;-53
2022/05/29 12:46:02;;;;;;;5.28;4.78;;;;;;;;;;5054105;28;20028;-52
2022/05/29 12:48:31;;;;;;;6.10;5.00;;;;;;;;;;5044696;28;20025;-54
2022/05/29 12:51:16;;;;;;;8.13;5.30;;;;;;;;;;5053264;28;20025;-53
2022/05/29 12:53:56;;;;;;;6.03;4.72;;;;;;;;;;5053204;28;20040;-53
2022/05/29 12:56:34;;;;;;;6.78;4.78;;;;;;;;;;5034104;28;20037;-54
2022/05/29 12:59:10;;;;;;;6.80;4.30;;;;;;;;;;5034082;28;20468;-52
2022/05/29 13:01:38;;;;;;;7.28;4.22;;;23.90;99.90;;;;;;5045001;28;20126;-53
2022/05/29 13:04:19;;;;;;;7.32;4.57;;;24.10;99.90;;;;;;5069024;28;20102;-54
2022/05/29 13:07:09;;;;;;;5.70;3.93;;;24.00;99.90;;;;;;5061226;28;20531;-53
2022/05/29 13:09:35;;;;;;;6.43;3.80;;;;;;;;;;5049070;28;20096;-54
2022/05/29 13:12:04;;;;;;;6.70;3.72;;;;;;;;;;5037590;28;20079;-53
2022/05/29 13:14:31;;;;;;;6.07;4.10;;;25.10;99.90;;;;;;5035671;28;20022;-52
2022/05/29 13:17:10;;;;;;;5.43;3.72;;;25.00;99.90;;;;;;5034162;28;20033;-52
2022/05/29 13:20:01;;;;;;;5.65;3.95;;;24.60;99.90;;;;;;5033883;28;20464;-53
2022/05/29 13:22:58;;;;;;;6.55;4.18;;;24.40;99.90;;;;;;5033847;28;20031;-52
2022/05/29 13:26:10;;;;;;;9.68;4.25;;;24.60;99.90;;;;;;4992435;28;20034;-51
2022/05/29 13:28:44;;;;;;;6.97;4.35;;;;;;;;;;4982575;28;20050;-53
2022/05/29 13:31:14;;;;;;;7.50;4.35;;;;;;;;;;4992676;28;20128;-54
2022/05/29 13:33:44;;;;;;;8.05;4.70;;;;;;;;;;4972915;28;20035;-53
2022/05/29 13:36:30;;;;;;;5.53;4.07;;;;;;;;;;4972844;28;20495;-52
2022/05/29 13:38:56;;;;;;;8.23;4.63;;;;;;;;;;4972762;28;20503;-53
2022/05/29 13:41:41;;;;;;;9.25;5.00;;;;;;;;;;4972787;28;20414;-53
2022/05/29 13:44:27;;;;;;;6.40;4.90;;;;;;;;;;4972554;28;20046;-54
2022/05/29 13:47:12;;;;;;;8.32;5.45;;;;;;;;;;4972709;28;20063;-52
2022/05/29 13:49:43;;;;;;;8.20;4.50;;;23.60;99.90;;;;;;4980549;28;20474;-52
2022/05/29 13:52:15;;;;;;;5.97;4.65;;;24.00;99.90;;;;;;4989560;28;20034;-51
2022/05/29 13:54:42;;;;;;;6.85;4.57;;;22.90;99.90;;;;;;4992717;28;20058;-53
2022/05/29 14:03:57;;;;;;;7.05;4.57;;;22.60;99.90;;;;;;4985319;28;20245;-52